Time;durP1;ratioP1;P1;durP2;ratioP2;P2;SDS_P1;SDS_P2;PMS_P1;PMS_P2;Temp;Humidity;BMP_temperature;BMP_pressure;BME280_temperature;BME280_humidity;BME280_pressure;Samples;Min_cycle;Max_cycle;Signal;HPM_P1;HPM_P2
2023/01/28 00:00:10;;;;;;;19.15;9.20;;;-0.80;99.90;;;;;;5160285;28;20098;-58
2023/01/28 00:02:48;;;;;;;22.15;9.88;;;-0.80;99.90;;;;;;5158731;28;20053;-58
2023/01/28 00:05:19;;;;;;;19.30;9.18;;;-0.90;99.90;;;;;;5137794;28;20089;-57
2023/01/28 00:07:58;;;;;;;18.40;9.35;;;-0.90;99.90;;;;;;5142833;28;20040;-58
2023/01/28 00:10:30;;;;;;;19.45;9.60;;;-0.80;99.90;;;;;;5157713;28;20027;-58
2023/01/28 00:13:02;;;;;;;15.07;7.35;;;-0.80;99.90;;;;;;5160665;28;20199;-58
2023/01/28 00:15:33;;;;;;;19.33;8.95;;;-0.80;99.90;;;;;;5158197;28;20231;-58
2023/01/28 00:18:04;;;;;;;15.38;8.50;;;-0.80;99.90;;;;;;5142460;28;20046;-58
2023/01/28 00:20:36;;;;;;;18.25;9.25;;;-0.80;99.90;;;;;;5160711;28;20204;-58
2023/01/28 00:23:07;;;;;;;18.95;9.20;;;-0.80;99.90;;;;;;5160165;28;20029;-58
2023/01/28 00:25:43;;;;;;;16.38;9.43;;;-0.80;99.90;;;;;;5159404;28;20299;-58
2023/01/28 00:28:14;;;;;;;19.95;9.60;;;-0.80;99.90;;;;;;5158946;28;20045;-58
2023/01/28 00:30:46;;;;;;;20.17;10.45;;;-0.80;99.90;;;;;;5157669;28;20042;-58
2023/01/28 00:33:17;;;;;;;19.88;8.90;;;-0.80;99.90;;;;;;5158177;28;20037;-58
2023/01/28 00:36:00;;;;;;;24.33;10.18;;;-0.80;99.90;;;;;;5158843;28;20030;-59
2023/01/28 00:38:35;;;;;;;21.23;11.15;;;-0.80;99.90;;;;;;5179579;28;20056;-58
2023/01/28 00:41:12;;;;;;;15.40;9.63;;;-0.80;99.90;;;;;;5162670;28;20036;-58
2023/01/28 00:43:45;;;;;;;19.20;9.48;;;-0.80;99.90;;;;;;5179390;28;20042;-58
2023/01/28 00:46:17;;;;;;;16.00;8.77;;;-0.80;99.90;;;;;;5145676;28;20038;-58
2023/01/28 00:48:51;;;;;;;21.02;9.50;;;-0.80;99.90;;;;;;5180122;28;20034;-58
2023/01/28 00:51:24;;;;;;;;;;;-0.90;99.90;;;;;;5178855;28;20032;-59
2023/01/28 00:53:55;;;;;;;20.73;9.55;;;-0.80;99.90;;;;;;5180083;28;19901;-58
2023/01/28 00:59:54;;;;;;;16.77;7.68;;;-0.90;99.90;;;;;;5161508;28;20303;-58
2023/01/28 01:02:26;;;;;;;17.50;8.07;;;-0.80;99.90;;;;;;5180959;23;20047;-60
2023/01/28 01:04:59;;;;;;;20.63;8.75;;;-0.90;99.90;;;;;;5121973;28;20072;-60
2023/01/28 01:07:42;;;;;;;20.52;9.07;;;-0.80;99.90;;;;;;5131995;28;20033;-59
2023/01/28 01:10:16;;;;;;;19.02;8.90;;;-0.80;99.90;;;;;;5104495;28;20224;-61
2023/01/28 01:12:48;;;;;;;22.95;10.68;;;-0.80;99.90;;;;;;5129987;28;20460;-60
2023/01/28 01:15:20;;;;;;;21.77;8.68;;;-0.80;99.90;;;;;;5114472;28;20043;-60
2023/01/28 01:17:52;;;;;;;19.13;7.78;;;-0.80;99.90;;;;;;5133926;28;20027;-60
2023/01/28 01:20:26;;;;;;;18.27;9.48;;;-0.80;99.90;;;;;;5114960;28;20053;-60
2023/01/28 01:22:59;;;;;;;21.23;9.95;;;-0.80;99.90;;;;;;5131816;28;20034;-59
2023/01/28 01:25:31;;;;;;;19.00;8.25;;;-0.80;99.90;;;;;;5130609;28;20031;-60
2023/01/28 01:28:04;;;;;;;15.88;8.63;;;-0.80;99.90;;;;;;5115982;28;20207;-59
2023/01/28 01:30:38;;;;;;;17.30;8.07;;;-0.80;99.90;;;;;;5112343;28;20037;-58
2023/01/28 01:33:12;;;;;;;26.55;10.32;;;-0.80;99.90;;;;;;5128342;28;20031;-59
2023/01/28 01:35:43;;;;;;;15.00;7.28;;;-0.80;99.90;;;;;;5130660;28;20050;-59
2023/01/28 01:38:17;;;;;;;26.50;10.57;;;-0.80;99.90;;;;;;5135543;28;20087;-59
2023/01/28 01:40:54;;;;;;;;;;;-0.80;99.90;;;;;;5134375;28;20042;-61
2023/01/28 01:43:46;;;;;;;18.95;9.85;;;-0.80;99.90;;;;;;5129900;28;19902;-59
2023/01/28 01:46:23;;;;;;;21.08;8.18;;;-0.80;99.90;;;;;;5112377;28;20049;-60
2023/01/28 01:48:57;;;;;;;22.10;8.18;;;-0.80;99.90;;;;;;5114691;28;20204;-59
2023/01/28 01:51:33;;;;;;;21.50;9.93;;;-0.80;99.90;;;;;;5132837;28;20037;-60
2023/01/28 01:54:08;;;;;;;18.98;11.27;;;-0.80;99.90;;;;;;5132437;28;20041;-58
2023/01/28 01:56:45;;;;;;;18.75;8.68;;;-0.80;99.90;;;;;;5152283;28;20038;-60
2023/01/28 01:59:30;;;;;;;25.80;10.98;;;-0.80;99.90;;;;;;5149867;28;20068;-60
2023/01/28 02:02:07;;;;;;;14.13;7.80;;;-0.80;99.90;;;;;;5128766;28;20041;-60
2023/01/28 02:04:42;;;;;;;15.10;8.45;;;-0.80;99.90;;;;;;5098899;28;20061;-60
2023/01/28 02:07:19;;;;;;;19.55;9.50;;;-0.80;99.90;;;;;;5109967;28;20045;-59
2023/01/28 02:09:50;;;;;;;16.38;6.78;;;-0.80;99.90;;;;;;5128910;28;20057;-60
2023/01/28 02:12:28;;;;;;;20.60;10.27;;;-0.80;99.90;;;;;;5129531;28;20035;-60
2023/01/28 02:15:02;;;;;;;15.43;8.77;;;-0.80;99.90;;;;;;5114019;28;20345;-60
2023/01/28 02:17:36;;;;;;;20.27;9.55;;;-0.80;99.90;;;;;;5131375;28;20118;-59
2023/01/28 02:20:13;;;;;;;17.95;7.93;;;-0.80;99.90;;;;;;5131207;28;20038;-61
2023/01/28 02:23:36;;;;;;;16.40;8.68;;;-0.70;99.90;;;;;;5125970;28;20027;-59
2023/01/28 02:26:28;;;;;;;18.38;8.70;;;-0.80;99.90;;;;;;5049255;29;20067;-59
2023/01/28 02:29:10;;;;;;;24.65;11.93;;;-0.80;99.90;;;;;;5050171;29;20522;-59
2023/01/28 02:32:16;;;;;;;23.40;10.48;;;-0.80;99.90;;;;;;5032544;29;20048;-60
2023/01/28 02:34:55;;;;;;;21.20;9.40;;;-0.80;99.90;;;;;;5028808;29;20388;-60
2023/01/28 02:37:38;;;;;;;19.30;9.27;;;-0.80;99.90;;;;;;5028364;29;20059;-59
2023/01/28 02:40:21;;;;;;;24.33;9.45;;;-0.80;99.90;;;;;;5018886;29;20033;-59
2023/01/28 02:42:52;;;;;;;23.15;10.75;;;-0.80;99.90;;;;;;5030066;29;20268;-60
2023/01/28 02:48:23;;;;;;;23.35;12.63;;;-0.90;99.90;;;;;;5030844;29;20510;-60
2023/01/28 02:51:23;;;;;;;22.65;10.75;;;-0.90;99.90;;;;;;5030698;29;20056;-59
2023/01/28 02:54:12;;;;;;;21.38;9.23;;;-0.90;99.90;;;;;;5042864;29;20075;-60
2023/01/28 02:57:01;;;;;;;22.35;10.60;;;-0.90;99.90;;;;;;5027598;29;20322;-60
2023/01/28 02:59:50;;;;;;;18.65;8.68;;;-0.90;99.90;;;;;;5015623;29;20044;-59
2023/01/28 03:02:32;;;;;;;24.50;10.63;;;-0.80;99.90;;;;;;5061303;29;20043;-60
2023/01/28 03:05:17;;;;;;;17.83;10.25;;;-0.90;99.90;;;;;;5078066;29;20510;-60
2023/01/28 03:07:49;;;;;;;22.92;9.98;;;-0.90;99.90;;;;;;5072871;29;20091;-59
2023/01/28 03:10:28;;;;;;;27.23;10.95;;;-0.90;99.90;;;;;;5107978;28;20042;-61
2023/01/28 03:36:54;;;;;;;16.17;9.55;;;-0.90;99.90;;;;;;5130692;28;20032;-59
2023/01/28 03:39:32;;;;;;;21.85;9.23;;;-1.00;99.90;;;;;;5113196;28;20497;-60
2023/01/28 03:42:12;;;;;;;21.17;9.65;;;-0.90;99.90;;;;;;5131540;28;20029;-61
2023/01/28 03:44:51;;;;;;;17.65;8.88;;;-0.90;99.90;;;;;;5112945;28;20587;-61
2023/01/28 03:47:25;;;;;;;22.40;11.32;;;-0.90;99.90;;;;;;5127860;28;20035;-61
2023/01/28 03:50:05;;;;;;;23.80;9.57;;;-0.90;99.90;;;;;;5128749;28;20048;-61
2023/01/28 03:53:11;;;;;;;24.27;11.88;;;-0.90;99.90;;;;;;5130854;28;20042;-59
2023/01/28 03:55:45;;;;;;;23.42;11.68;;;-1.00;99.90;;;;;;5123183;28;20457;-59
2023/01/28 03:58:20;;;;;;;23.60;11.98;;;-1.00;99.90;;;;;;5100857;29;20039;-60
2023/01/28 04:00:55;;;;;;;24.08;12.45;;;-1.00;99.90;;;;;;5107799;28;20027;-59
2023/01/28 04:03:31;;;;;;;20.27;10.00;;;-1.00;99.90;;;;;;5128155;28;20044;-61
2023/01/28 04:06:10;;;;;;;27.45;12.80;;;-1.00;99.90;;;;;;5118498;28;20047;-61
2023/01/28 04:08:47;;;;;;;29.80;10.38;;;-1.10;99.90;;;;;;5128269;28;20045;-59
2023/01/28 04:11:24;;;;;;;21.52;9.75;;;-1.10;99.90;;;;;;5113089;29;20050;-60
2023/01/28 04:13:58;;;;;;;21.10;10.50;;;-1.00;99.90;;;;;;5127897;28;20047;-61
2023/01/28 04:16:29;;;;;;;23.35;10.43;;;-1.10;99.90;;;;;;5116960;28;20640;-61
2023/01/28 04:19:00;;;;;;;20.00;9.75;;;-1.10;99.90;;;;;;5116486;28;20035;-61
2023/01/28 04:21:34;;;;;;;23.95;11.30;;;-1.00;99.90;;;;;;5116022;28;20065;-61
2023/01/28 04:24:06;;;;;;;17.38;9.25;;;-1.00;99.90;;;;;;5131150;28;20038;-61
2023/01/28 04:26:40;;;;;;;26.30;12.15;;;-1.00;99.90;;;;;;5100091;28;20037;-60
2023/01/28 04:29:14;;;;;;;26.97;12.53;;;-1.00;99.90;;;;;;5116980;28;20057;-61
2023/01/28 04:31:45;;;;;;;20.33;10.13;;;-1.10;99.90;;;;;;5131579;28;20029;-61
2023/01/28 04:34:19;;;;;;;19.90;11.07;;;-1.00;99.90;;;;;;5116338;28;20035;-59
2023/01/28 04:36:50;;;;;;;21.20;11.18;;;-1.10;99.90;;;;;;5114087;28;20030;-60
2023/01/28 04:39:23;;;;;;;28.73;13.10;;;-1.10;99.90;;;;;;5131426;28;20372;-62
2023/01/28 04:41:57;;;;;;;20.20;8.93;;;-1.10;99.90;;;;;;5099352;28;20534;-60
2023/01/28 04:44:32;;;;;;;18.55;9.85;;;-1.10;99.90;;;;;;5116070;28;20033;-59
2023/01/28 04:47:03;;;;;;;23.33;10.57;;;-1.10;99.90;;;;;;5130020;28;20038;-60
2023/01/28 04:49:35;;;;;;;22.52;11.48;;;-1.10;99.90;;;;;;5113850;28;20637;-60
2023/01/28 04:52:06;;;;;;;24.70;10.20;;;-1.10;99.90;;;;;;5132157;28;20034;-58
2023/01/28 04:54:39;;;;;;;20.45;10.38;;;-1.10;99.90;;;;;;5106711;28;20532;-60
2023/01/28 04:57:10;;;;;;;27.33;12.30;;;-1.10;99.90;;;;;;5135380;28;20029;-60
2023/01/28 04:59:44;;;;;;;30.38;11.45;;;-1.20;99.90;;;;;;5119160;28;20038;-60
2023/01/28 05:02:17;;;;;;;22.17;12.10;;;-1.10;99.90;;;;;;5121076;28;20050;-59
2023/01/28 05:04:51;;;;;;;18.95;9.82;;;-1.10;99.90;;;;;;5123082;28;20049;-59
2023/01/28 05:07:23;;;;;;;19.60;8.38;;;-1.10;99.90;;;;;;5113685;28;20053;-60
2023/01/28 05:09:54;;;;;;;32.13;11.23;;;-1.10;99.90;;;;;;5130839;28;20040;-59
2023/01/28 05:12:25;;;;;;;18.27;8.95;;;-1.10;99.90;;;;;;5132564;28;20033;-59
2023/01/28 05:14:56;;;;;;;27.13;11.10;;;-1.10;99.90;;;;;;5132616;28;20036;-60
2023/01/28 05:17:30;;;;;;;23.05;11.15;;;-1.10;99.90;;;;;;5112974;28;20038;-59
2023/01/28 05:20:02;;;;;;;24.50;12.32;;;-1.10;99.90;;;;;;5131314;28;20366;-60
2023/01/28 05:22:37;;;;;;;24.95;11.15;;;-1.10;99.90;;;;;;5133243;28;20026;-60
2023/01/28 05:25:08;;;;;;;23.83;11.55;;;-1.10;99.90;;;;;;5131228;28;20037;-60
2023/01/28 05:27:40;;;;;;;24.27;12.88;;;-1.10;99.90;;;;;;5132101;28;20045;-59
2023/01/28 05:30:11;;;;;;;21.67;10.88;;;-1.10;99.90;;;;;;5129925;28;20037;-59
2023/01/28 05:32:42;;;;;;;19.52;9.02;;;-1.10;99.90;;;;;;5132176;28;20034;-59
2023/01/28 05:35:17;;;;;;;29.13;9.93;;;-1.10;99.90;;;;;;5131927;28;20026;-60
2023/01/28 05:37:51;;;;;;;23.17;12.25;;;-1.10;99.90;;;;;;5132056;28;20030;-60
2023/01/28 05:40:22;;;;;;;25.60;11.60;;;-1.10;99.90;;;;;;5114692;28;20061;-58
2023/01/28 05:42:55;;;;;;;30.23;11.65;;;-1.10;99.90;;;;;;5123239;28;20034;-59
2023/01/28 05:45:29;;;;;;;28.00;13.07;;;-1.00;99.90;;;;;;5103110;28;20038;-60
2023/01/28 05:48:03;;;;;;;21.75;11.40;;;-1.00;99.90;;;;;;5113621;28;20330;-61
2023/01/28 05:50:34;;;;;;;24.45;11.25;;;-1.00;99.90;;;;;;5099149;28;20312;-59
2023/01/28 05:53:09;;;;;;;20.25;9.73;;;-1.10;99.90;;;;;;5129396;28;20046;-59
2023/01/28 05:55:40;;;;;;;28.73;11.77;;;-1.10;99.90;;;;;;5126117;28;20047;-60
2023/01/28 05:58:11;;;;;;;31.23;11.88;;;-1.00;99.90;;;;;;5127049;28;20050;-60
2023/01/28 06:00:46;;;;;;;29.08;11.23;;;-1.10;99.90;;;;;;5109734;28;20733;-59
2023/01/28 06:03:20;;;;;;;30.27;12.13;;;-1.10;99.90;;;;;;5111632;28;20048;-60
2023/01/28 06:05:51;;;;;;;21.25;9.85;;;-1.10;99.90;;;;;;5116680;28;20035;-59
2023/01/28 06:08:22;;;;;;;16.83;8.55;;;-1.00;99.90;;;;;;5105748;28;20033;-60
2023/01/28 06:10:53;;;;;;;20.88;9.00;;;-1.10;99.90;;;;;;5103590;28;20023;-60
2023/01/28 06:13:27;;;;;;;18.75;9.85;;;-1.00;99.90;;;;;;5119796;28;20042;-60
2023/01/28 06:15:59;;;;;;;28.77;11.68;;;-1.00;99.90;;;;;;5128067;28;20035;-60
2023/01/28 06:18:33;;;;;;;19.50;11.10;;;-1.00;99.90;;;;;;5135264;28;20038;-61
2023/01/28 06:21:05;;;;;;;20.38;11.27;;;-1.00;99.90;;;;;;5111030;28;20050;-60
2023/01/28 06:23:36;;;;;;;31.05;12.60;;;-1.00;99.90;;;;;;5093688;28;20045;-59
2023/01/28 06:26:07;;;;;;;20.58;9.18;;;-1.00;99.90;;;;;;5122711;28;20023;-60
2023/01/28 06:28:38;;;;;;;23.95;10.55;;;-0.90;99.90;;;;;;5121710;28;20035;-59
2023/01/28 06:31:09;;;;;;;24.75;11.45;;;-0.90;99.90;;;;;;5115796;28;20053;-60
2023/01/28 06:33:41;;;;;;;25.67;11.73;;;-0.90;99.90;;;;;;5124919;28;20466;-60
2023/01/28 06:36:12;;;;;;;19.88;10.27;;;-0.90;99.90;;;;;;5124653;28;20037;-59
2023/01/28 06:38:46;;;;;;;21.08;10.18;;;-0.80;99.90;;;;;;5118319;28;20038;-59
2023/01/28 06:41:19;;;;;;;19.67;10.82;;;-0.80;99.90;;;;;;5118448;28;20046;-60
2023/01/28 06:43:51;;;;;;;20.42;9.57;;;-0.80;99.90;;;;;;5120562;28;20053;-59
2023/01/28 06:46:23;;;;;;;16.70;8.13;;;-0.80;99.90;;;;;;5098866;28;20043;-60
2023/01/28 06:48:57;;;;;;;16.48;8.10;;;-0.80;99.90;;;;;;5119931;28;20036;-59
2023/01/28 06:51:28;;;;;;;20.80;8.90;;;-0.90;99.90;;;;;;5127388;28;20377;-60
2023/01/28 06:53:59;;;;;;;22.92;11.75;;;-0.90;99.90;;;;;;5115481;28;20039;-60
2023/01/28 06:56:31;;;;;;;19.52;10.15;;;-0.90;99.90;;;;;;5101601;28;20035;-61
2023/01/28 06:59:05;;;;;;;21.15;9.48;;;-0.80;99.90;;;;;;5127171;28;20043;-60
2023/01/28 07:01:39;;;;;;;22.17;11.07;;;-0.80;99.90;;;;;;5102302;28;20049;-60
2023/01/28 07:04:10;;;;;;;26.13;11.68;;;-0.70;99.90;;;;;;5087838;28;20028;-58
2023/01/28 07:06:44;;;;;;;17.92;10.02;;;-0.70;99.90;;;;;;5121350;28;20660;-60
2023/01/28 07:09:15;;;;;;;26.67;10.68;;;-0.70;99.90;;;;;;5108545;29;20037;-59
2023/01/28 07:11:46;;;;;;;28.30;12.20;;;-0.70;99.90;;;;;;5108406;29;20047;-62
2023/01/28 07:14:20;;;;;;;21.58;11.52;;;-0.70;99.90;;;;;;5123497;28;20039;-60
2023/01/28 07:16:52;;;;;;;25.33;11.60;;;-0.70;99.90;;;;;;5125959;28;20038;-61
2023/01/28 07:19:26;;;;;;;22.48;10.25;;;-0.70;99.90;;;;;;5124458;28;20043;-61
2023/01/28 07:21:59;;;;;;;26.88;10.82;;;-0.70;99.90;;;;;;5125679;28;20152;-59
2023/01/28 07:24:31;;;;;;;23.77;11.48;;;-0.70;99.90;;;;;;5111793;28;20350;-61
2023/01/28 07:27:03;;;;;;;19.95;9.75;;;-0.70;99.90;;;;;;5131509;28;20041;-61
2023/01/28 07:29:34;;;;;;;20.35;10.10;;;-0.70;99.90;;;;;;5128593;28;20022;-60
2023/01/28 07:32:06;;;;;;;26.45;11.55;;;-0.70;99.90;;;;;;5107861;28;20103;-61
2023/01/28 07:34:38;;;;;;;20.83;11.60;;;-0.80;99.90;;;;;;5095142;28;20027;-59
2023/01/28 07:37:09;;;;;;;25.42;10.27;;;-0.90;99.90;;;;;;5126361;28;20043;-59
2023/01/28 07:39:41;;;;;;;28.25;11.05;;;-0.80;99.90;;;;;;5113390;28;20035;-61
2023/01/28 07:42:12;;;;;;;29.63;11.40;;;-0.80;99.90;;;;;;5132772;28;20045;-60
2023/01/28 07:44:43;;;;;;;28.05;11.90;;;-0.80;99.90;;;;;;5109655;28;20034;-62
2023/01/28 07:47:14;;;;;;;24.67;10.82;;;-0.80;99.90;;;;;;5128186;28;20195;-60
2023/01/28 07:49:46;;;;;;;27.48;11.40;;;-0.70;99.90;;;;;;5136275;28;20027;-60
2023/01/28 07:52:18;;;;;;;26.80;12.77;;;-0.60;99.90;;;;;;5118861;28;20037;-60
2023/01/28 07:54:50;;;;;;;23.60;10.52;;;-0.60;99.90;;;;;;5119373;28;20376;-61
2023/01/28 07:57:29;;;;;;;20.67;10.50;;;-0.60;99.90;;;;;;5152849;28;20388;-60
2023/01/28 08:00:00;;;;;;;23.60;12.20;;;-0.50;99.90;;;;;;5143847;28;20027;-60
2023/01/28 08:02:31;;;;;;;26.88;10.57;;;-0.50;99.90;;;;;;5120447;28;20051;-60
2023/01/28 08:05:02;;;;;;;25.50;12.05;;;-0.60;99.90;;;;;;5111592;28;20051;-63
2023/01/28 08:07:34;;;;;;;23.70;11.23;;;-0.40;99.90;;;;;;5106206;28;20038;-62
2023/01/28 08:10:05;;;;;;;28.23;13.27;;;-0.50;99.90;;;;;;5092922;28;20044;-60
2023/01/28 08:12:39;;;;;;;23.67;11.50;;;-0.40;99.90;;;;;;5129907;28;20041;-60
2023/01/28 08:15:10;;;;;;;26.40;11.60;;;-0.40;99.90;;;;;;5123690;28;20042;-60
2023/01/28 08:17:41;;;;;;;20.63;9.27;;;-0.40;99.90;;;;;;5111414;28;20034;-60
2023/01/28 08:20:13;;;;;;;26.70;11.23;;;-0.40;99.90;;;;;;5119425;28;20644;-62
2023/01/28 08:22:44;;;;;;;19.85;10.65;;;-0.50;99.90;;;;;;5126427;28;20224;-60
2023/01/28 08:25:16;;;;;;;25.70;9.23;;;-0.40;99.90;;;;;;5110742;28;20426;-63
2023/01/28 08:27:47;;;;;;;22.33;11.45;;;-0.40;99.90;;;;;;5127506;28;20031;-60
2023/01/28 08:30:19;;;;;;;20.27;10.73;;;-0.40;99.90;;;;;;5126133;28;20039;-60
2023/01/28 08:32:55;;;;;;;26.73;10.57;;;-0.30;99.90;;;;;;5127921;28;20037;-59
2023/01/28 08:35:27;;;;;;;25.40;11.63;;;-0.20;99.90;;;;;;5130128;28;20061;-60
2023/01/28 08:38:02;;;;;;;23.23;9.80;;;-0.10;99.90;;;;;;5112138;28;20666;-59
2023/01/28 08:40:34;;;;;;;16.80;10.10;;;-0.10;99.90;;;;;;5128954;28;20030;-59
2023/01/28 08:43:06;;;;;;;17.08;7.95;;;0.00;99.90;;;;;;5128596;28;20023;-60
2023/01/28 08:45:39;;;;;;;19.83;9.77;;;0.00;99.90;;;;;;5112317;28;20050;-58
2023/01/28 08:48:15;;;;;;;22.73;9.65;;;0.00;99.90;;;;;;5113358;28;20630;-59
2023/01/28 08:50:49;;;;;;;15.02;7.35;;;0.00;99.90;;;;;;5128143;28;20031;-60
2023/01/28 08:53:20;;;;;;;20.42;9.13;;;0.00;99.90;;;;;;5126621;28;20034;-60
2023/01/28 08:55:53;;;;;;;17.27;9.60;;;0.10;99.90;;;;;;5127742;28;20037;-60
2023/01/28 08:58:24;;;;;;;19.10;9.32;;;0.10;99.90;;;;;;5124454;28;20232;-59
2023/01/28 09:00:55;;;;;;;18.63;8.48;;;0.00;99.90;;;;;;5129107;28;20050;-61
2023/01/28 09:03:26;;;;;;;22.48;10.25;;;0.00;99.90;;;;;;5126890;28;20043;-60
2023/01/28 09:06:02;;;;;;;19.50;9.95;;;0.00;99.90;;;;;;5118555;28;20489;-60
2023/01/28 09:08:36;;;;;;;21.02;9.23;;;-0.10;99.90;;;;;;5103393;28;20045;-61
2023/01/28 09:11:12;;;;;;;15.88;7.75;;;-0.10;99.90;;;;;;5131251;28;20367;-59
2023/01/28 09:13:46;;;;;;;27.73;10.57;;;0.00;99.90;;;;;;5132154;28;20035;-60
2023/01/28 09:16:17;;;;;;;30.77;12.60;;;0.00;99.90;;;;;;5131901;28;20045;-60
2023/01/28 09:18:50;;;;;;;30.70;13.63;;;0.00;99.90;;;;;;5128656;28;20049;-60
2023/01/28 09:21:21;;;;;;;22.63;11.15;;;0.00;99.90;;;;;;5114160;28;20023;-60
2023/01/28 09:23:54;;;;;;;25.45;11.85;;;0.10;99.90;;;;;;5131250;28;20042;-59
2023/01/28 09:26:25;;;;;;;36.63;19.67;;;0.10;99.90;;;;;;5114397;28;20044;-60
2023/01/28 09:28:59;;;;;;;28.33;12.30;;;0.20;99.90;;;;;;5132384;28;20033;-59
2023/01/28 09:31:31;;;;;;;25.20;12.15;;;0.30;99.90;;;;;;5129664;28;20035;-60
2023/01/28 09:34:04;;;;;;;19.33;11.07;;;0.20;99.90;;;;;;5128694;28;20049;-60
2023/01/28 09:36:38;;;;;;;22.23;10.23;;;0.20;99.90;;;;;;5127117;28;20027;-58
2023/01/28 09:39:09;;;;;;;20.10;10.80;;;0.20;99.90;;;;;;5114747;28;20041;-59
2023/01/28 09:42:15;;;;;;;23.63;11.82;;;0.20;99.90;;;;;;5131750;28;20031;-59
2023/01/28 09:44:52;;;;;;;19.45;8.93;;;0.20;99.90;;;;;;5071054;29;20028;-61
2023/01/28 09:47:45;;;;;;;23.92;10.43;;;0.30;99.90;;;;;;5088585;28;20033;-59
2023/01/28 09:50:33;;;;;;;16.27;8.65;;;0.30;99.90;;;;;;5131009;28;20023;-61
2023/01/28 09:53:11;;;;;;;25.25;12.18;;;0.30;99.90;;;;;;5126530;28;20560;-60
2023/01/28 09:55:46;;;;;;;25.90;13.15;;;0.20;99.90;;;;;;5113488;28;20788;-60
2023/01/28 09:58:18;;;;;;;14.70;8.60;;;0.30;99.90;;;;;;5130169;28;20060;-60
2023/01/28 10:00:59;;;;;;;21.77;11.30;;;0.30;99.90;;;;;;5111007;28;20045;-60
2023/01/28 10:03:54;;;;;;;20.75;10.30;;;0.30;99.90;;;;;;5130738;28;20060;-59
2023/01/28 10:06:47;;;;;;;15.68;8.70;;;0.40;99.90;;;;;;5118890;28;20035;-59
2023/01/28 10:09:42;;;;;;;26.45;10.73;;;0.40;99.90;;;;;;5113278;28;20034;-60
2023/01/28 10:12:21;;;;;;;26.67;11.80;;;0.30;99.90;;;;;;5124402;28;20042;-59
2023/01/28 10:15:27;;;;;;;22.38;10.10;;;0.40;99.90;;;;;;5129149;28;20034;-59
2023/01/28 10:18:07;;;;;;;19.50;10.80;;;0.40;99.90;;;;;;5120110;28;20015;-59
2023/01/28 10:20:51;;;;;;;22.48;10.80;;;0.40;99.90;;;;;;5113020;28;20049;-59
2023/01/28 10:23:44;;;;;;;21.20;10.15;;;0.40;99.90;;;;;;5130263;28;20030;-59
2023/01/28 10:26:24;;;;;;;17.55;8.93;;;0.50;99.90;;;;;;5123722;28;20049;-60
2023/01/28 10:28:59;;;;;;;30.23;12.55;;;0.50;99.90;;;;;;5127971;28;20041;-60
2023/01/28 10:31:35;;;;;;;17.88;8.25;;;0.50;99.90;;;;;;5124737;28;20308;-60
2023/01/28 10:34:09;;;;;;;17.17;9.35;;;0.60;99.90;;;;;;5130688;28;20031;-60
2023/01/28 10:36:41;;;;;;;20.17;9.85;;;0.70;99.90;;;;;;5130621;28;20039;-61
2023/01/28 10:39:15;;;;;;;21.98;10.02;;;0.70;99.90;;;;;;5112657;28;20372;-61
2023/01/28 10:41:47;;;;;;;21.17;10.07;;;0.80;99.90;;;;;;5126619;28;20597;-61
2023/01/28 10:44:37;;;;;;;24.15;11.43;;;0.80;99.90;;;;;;5113810;28;20293;-61
2023/01/28 10:47:19;;;;;;;21.63;9.80;;;0.70;99.90;;;;;;5127862;28;20350;-60
2023/01/28 10:49:55;;;;;;;19.92;9.18;;;0.60;99.90;;;;;;5130827;28;20291;-60
2023/01/28 10:52:26;;;;;;;19.67;10.43;;;0.70;99.90;;;;;;5113071;28;20258;-60
2023/01/28 10:55:05;;;;;;;15.80;8.35;;;0.70;99.90;;;;;;5113073;28;20323;-60
2023/01/28 10:57:41;;;;;;;21.92;11.27;;;0.70;99.90;;;;;;5129500;28;20033;-60
2023/01/28 11:00:41;;;;;;;20.63;11.10;;;0.70;99.90;;;;;;5127610;28;20022;-60
2023/01/28 11:03:19;;;;;;;21.75;10.35;;;0.60;99.90;;;;;;5131728;28;20042;-61
2023/01/28 11:05:51;;;;;;;27.70;10.57;;;0.60;99.90;;;;;;5112486;28;20082;-61
2023/01/28 11:08:26;;;;;;;24.23;10.93;;;0.60;99.90;;;;;;5126646;28;20031;-60
2023/01/28 11:10:57;;;;;;;;;;;0.50;99.90;;;;;;5130619;28;20033;-60
2023/01/28 11:13:29;;;;;;;20.30;10.55;;;0.40;99.90;;;;;;5132960;28;19912;-60
2023/01/28 11:16:13;;;;;;;18.95;9.63;;;0.40;99.90;;;;;;5134108;28;20636;-60
2023/01/28 11:18:59;;;;;;;19.40;9.13;;;0.50;99.90;;;;;;5132607;28;20042;-60
2023/01/28 11:21:36;;;;;;;19.02;10.07;;;0.50;99.90;;;;;;5132061;28;20035;-61
2023/01/28 11:24:18;;;;;;;20.90;9.60;;;0.50;99.90;;;;;;5129297;28;20038;-61
2023/01/28 11:26:53;;;;;;;18.45;9.10;;;0.50;99.90;;;;;;5132113;28;20495;-60
2023/01/28 11:29:38;;;;;;;22.13;9.35;;;0.40;99.90;;;;;;5132861;28;20031;-59
2023/01/28 11:32:21;;;;;;;18.77;10.10;;;0.40;99.90;;;;;;5129797;28;20034;-60
2023/01/28 11:34:56;;;;;;;24.10;10.50;;;0.40;99.90;;;;;;5133375;28;20035;-60
2023/01/28 11:37:28;;;;;;;25.83;11.90;;;0.50;99.90;;;;;;5134403;28;20027;-61
2023/01/28 11:40:01;;;;;;;22.50;10.38;;;0.40;99.90;;;;;;5130945;28;20031;-61
2023/01/28 11:42:33;;;;;;;22.63;11.23;;;0.50;99.90;;;;;;5127236;28;20133;-61
2023/01/28 11:45:29;;;;;;;22.77;10.88;;;0.50;99.90;;;;;;5126086;28;20034;-61
2023/01/28 11:48:10;;;;;;;21.63;10.27;;;0.50;99.90;;;;;;5133002;28;20025;-61
2023/01/28 11:51:05;;;;;;;21.60;9.68;;;0.50;99.90;;;;;;5116011;28;20031;-60
2023/01/28 11:54:20;;;;;;;23.70;9.73;;;0.50;99.90;;;;;;5115420;28;20042;-59
2023/01/28 11:57:11;;;;;;;22.75;10.35;;;0.60;99.90;;;;;;5131754;28;20041;-60
2023/01/28 12:00:33;;;;;;;26.38;9.57;;;0.70;99.90;;;;;;5139359;28;20030;-60
2023/01/28 12:03:19;;;;;;;23.85;11.43;;;0.50;99.90;;;;;;5121239;28;20039;-60
2023/01/28 12:06:10;;;;;;;18.10;9.23;;;0.60;99.90;;;;;;5132087;28;20039;-60
2023/01/28 12:09:06;;;;;;;24.52;9.27;;;0.50;99.90;;;;;;5133240;28;20033;-60
2023/01/28 12:15:16;;;;;;;20.50;9.88;;;0.50;99.90;;;;;;5131726;28;20030;-59
2023/01/28 12:18:15;;;;;;;20.63;10.57;;;0.50;99.90;;;;;;5114776;28;20034;-60
2023/01/28 12:20:58;;;;;;;16.48;8.60;;;0.60;99.90;;;;;;5130522;28;20353;-59
2023/01/28 12:23:46;;;;;;;19.20;10.45;;;0.60;99.90;;;;;;5128769;28;20412;-60
2023/01/28 12:26:53;;;;;;;18.20;9.27;;;0.60;99.90;;;;;;5131506;28;20037;-59
2023/01/28 12:29:59;;;;;;;17.27;8.90;;;0.60;99.90;;;;;;5130090;28;20038;-59
2023/01/28 12:32:49;;;;;;;17.60;8.10;;;0.60;99.90;;;;;;5105374;29;20043;-60
2023/01/28 12:35:35;;;;;;;11.45;7.07;;;0.60;99.90;;;;;;5109914;28;20570;-60
2023/01/28 12:38:15;;;;;;;13.25;7.20;;;0.60;99.90;;;;;;5108344;29;20031;-60
2023/01/28 12:41:07;;;;;;;23.58;10.63;;;0.60;99.90;;;;;;5107494;29;20042;-59
2023/01/28 12:44:06;;;;;;;19.23;9.82;;;0.70;99.90;;;;;;5118671;28;20043;-59
2023/01/28 12:46:43;;;;;;;19.98;9.63;;;0.80;99.90;;;;;;5120720;28;20314;-59
2023/01/28 12:49:20;;;;;;;22.65;10.45;;;0.80;99.90;;;;;;5128198;28;20037;-59
2023/01/28 12:52:33;;;;;;;19.67;9.10;;;0.90;99.90;;;;;;5130814;28;20037;-59
2023/01/28 12:55:44;;;;;;;20.17;10.10;;;0.90;99.90;;;;;;5088203;29;20058;-59
2023/01/28 12:58:44;;;;;;;17.70;9.50;;;0.80;99.90;;;;;;5072904;29;20032;-59
2023/01/28 13:01:26;;;;;;;19.92;9.70;;;0.70;99.90;;;;;;5085841;28;20084;-60
2023/01/28 13:04:24;;;;;;;19.25;9.90;;;0.70;99.90;;;;;;5067868;29;20056;-60
2023/01/28 13:07:00;;;;;;;24.35;10.52;;;0.60;99.90;;;;;;5059778;29;20265;-59
2023/01/28 13:09:35;;;;;;;22.95;9.57;;;0.60;99.90;;;;;;5079153;29;20056;-61
2023/01/28 13:12:10;;;;;;;25.27;10.75;;;0.50;99.90;;;;;;5080481;29;20589;-60
2023/01/28 13:14:42;;;;;;;18.63;8.45;;;0.50;99.90;;;;;;5069127;29;20032;-60
2023/01/28 13:17:27;;;;;;;18.55;9.50;;;0.50;99.90;;;;;;5072164;29;20035;-59
2023/01/28 13:19:58;;;;;;;22.08;10.95;;;0.60;99.90;;;;;;5076485;29;20031;-60
2023/01/28 13:22:36;;;;;;;16.63;8.93;;;0.60;99.90;;;;;;5086154;29;20472;-60
2023/01/28 13:25:28;;;;;;;17.42;9.48;;;0.50;99.90;;;;;;5079814;29;20036;-60
2023/01/28 13:28:05;;;;;;;20.52;10.30;;;0.50;99.90;;;;;;5086214;29;20035;-60
2023/01/28 13:30:48;;;;;;;19.65;9.55;;;0.50;99.90;;;;;;5103180;28;20030;-59
2023/01/28 13:33:39;;;;;;;27.67;10.82;;;0.40;99.90;;;;;;5127321;28;20213;-59
2023/01/28 13:36:31;;;;;;;23.42;10.70;;;0.40;99.90;;;;;;5127863;28;20333;-59
2023/01/28 13:39:17;;;;;;;24.65;10.95;;;0.40;99.90;;;;;;5110420;28;20027;-61
2023/01/28 13:42:20;;;;;;;20.27;9.85;;;0.40;99.90;;;;;;5126814;28;20041;-61
2023/01/28 13:44:55;;;;;;;21.38;9.85;;;0.50;99.90;;;;;;5129922;28;20046;-61
2023/01/28 13:47:32;;;;;;;17.63;9.00;;;0.50;99.90;;;;;;5127009;28;20057;-60
2023/01/28 13:50:13;;;;;;;20.48;9.45;;;0.40;99.90;;;;;;5113897;28;20033;-61
2023/01/28 13:52:50;;;;;;;14.88;8.63;;;0.40;99.90;;;;;;5129387;28;20037;-60
2023/01/28 13:55:30;;;;;;;20.85;11.20;;;0.40;99.90;;;;;;5129262;28;20118;-61
2023/01/28 13:58:04;;;;;;;20.77;10.35;;;0.40;99.90;;;;;;5112465;28;20026;-61
2023/01/28 14:01:25;;;;;;;24.85;11.38;;;0.40;99.90;;;;;;5127615;28;20029;-61